Terminal Aerodrome Forecast
Issued by NWS

Current Version | Previous Version | Text Only | Print | Product List | Glossary Off
Versions: 1 2 3 4 5 6 7 8 9 10 11 12 13 14 15 16 17 18

733
FTUS41 KILN 200525
TAFLCK
TAF
KLCK 200525Z 2006/2106 00000KT P6SM FEW150
     FM200900 00000KT 5SM BR FEW250
     FM201100 00000KT 2SM BR FEW250
     FM201300 00000KT 5SM BR FEW200
     FM201500 18005KT P6SM FEW045=

USA.gov is the U.S. government's official web portal to all federal, state and local government web resources and services.